Time;durP1;ratioP1;P1;durP2;ratioP2;P2;SDS_P1;SDS_P2;PMS_P1;PMS_P2;Temp;Humidity;BMP_temperature;BMP_pressure;BME280_temperature;BME280_humidity;BME280_pressure;Samples;Min_cycle;Max_cycle;Signal;HPM_P1;HPM_P2
2022/01/10 00:02:12;;;;;;;5.00;2.28;;;4.10;87.60;;;;;;6059736;23;20461;-73
2022/01/10 00:04:46;;;;;;;3.42;1.70;;;4.10;87.60;;;;;;6061110;23;20330;-73
2022/01/10 00:07:13;;;;;;;2.22;1.33;;;4.10;87.60;;;;;;6059609;23;20027;-73
2022/01/10 00:09:53;;;;;;;6.32;1.85;;;4.10;87.60;;;;;;5692793;23;10000427;-74
2022/01/10 00:12:27;;;;;;;7.20;2.83;;;4.10;87.60;;;;;;833032;23;10001834;-72
2022/01/10 00:14:57;;;;;;;6.85;2.65;;;4.00;87.60;;;;;;6057185;23;20038;-72
2022/01/10 00:17:24;;;;;;;7.55;3.35;;;4.10;87.60;;;;;;6058297;23;20034;-72
2022/01/10 00:19:51;;;;;;;6.53;3.30;;;4.10;87.50;;;;;;6055356;23;20030;-72
2022/01/10 00:22:18;;;;;;;9.20;3.75;;;4.10;87.60;;;;;;6056844;23;20025;-71
2022/01/10 00:24:45;;;;;;;8.77;3.15;;;4.00;87.60;;;;;;6057143;23;20026;-73
2022/01/10 00:27:13;;;;;;;8.85;2.83;;;4.00;87.70;;;;;;6077298;23;20040;-72
2022/01/10 00:29:42;;;;;;;7.75;3.20;;;4.00;87.70;;;;;;6058096;23;20022;-72
2022/01/10 00:32:09;;;;;;;6.10;2.72;;;4.00;87.70;;;;;;6059517;23;20410;-72
2022/01/10 00:34:36;;;;;;;7.05;3.47;;;4.00;87.80;;;;;;6055675;23;20029;-72
2022/01/10 00:37:04;;;;;;;5.55;2.92;;;4.00;87.70;;;;;;6061323;23;20054;-72
2022/01/10 00:39:31;;;;;;;6.35;2.70;;;4.00;87.70;;;;;;6080893;23;20029;-73
2022/01/10 00:41:58;;;;;;;6.82;3.15;;;4.00;87.70;;;;;;6060236;23;20027;-72
2022/01/10 00:44:30;;;;;;;7.20;3.38;;;4.00;87.70;;;;;;6055995;23;20649;-72
2022/01/10 00:46:58;;;;;;;8.38;3.58;;;4.10;87.80;;;;;;6052169;23;20033;-72
2022/01/10 00:49:25;;;;;;;7.78;3.58;;;4.00;87.70;;;;;;6077193;23;20042;-71
2022/01/10 00:51:53;;;;;;;7.57;2.95;;;4.10;87.70;;;;;;6077609;23;20030;-72
2022/01/10 00:54:20;;;;;;;6.45;2.20;;;4.10;87.70;;;;;;6059745;23;20452;-73
2022/01/10 00:56:48;;;;;;;6.75;2.65;;;4.00;87.70;;;;;;6059652;23;20327;-73
2022/01/10 00:59:15;;;;;;;4.38;2.55;;;4.10;87.70;;;;;;6059481;23;20446;-72
2022/01/10 01:01:43;;;;;;;8.80;2.30;;;4.10;87.70;;;;;;6054999;23;20026;-72
2022/01/10 01:04:11;;;;;;;5.53;1.92;;;4.00;87.70;;;;;;6057600;23;20037;-73
2022/01/10 01:06:38;;;;;;;8.75;2.40;;;4.00;87.70;;;;;;6061303;23;20022;-73
2022/01/10 01:09:08;;;;;;;3.35;1.48;;;4.00;87.70;;;;;;6060403;23;20113;-71
2022/01/10 01:14:26;;;;;;;4.75;2.10;;;4.00;87.60;;;;;;6083670;23;20544;-73
2022/01/10 01:17:09;;;;;;;8.13;2.53;;;4.00;87.70;;;;;;6057970;23;20058;-72
2022/01/10 01:19:54;;;;;;;8.57;3.30;;;4.00;87.60;;;;;;6053866;23;20050;-73
2022/01/10 01:25:06;;;;;;;6.47;3.28;;;4.00;87.70;;;;;;6058284;23;20031;-71
2022/01/10 01:27:33;;;;;;;13.40;3.42;;;4.00;87.60;;;;;;6085769;23;20341;-73
2022/01/10 01:30:00;;;;;;;10.23;4.10;;;4.00;87.50;;;;;;6062816;23;20023;-73
2022/01/10 01:32:33;;;;;;;7.90;3.25;;;4.00;87.40;;;;;;6086085;23;20023;-74
2022/01/10 01:35:05;;;;;;;9.02;3.97;;;4.00;87.30;;;;;;6062747;23;20413;-73
2022/01/10 01:37:32;;;;;;;9.85;4.65;;;4.00;87.30;;;;;;6064169;23;20456;-74
2022/01/10 01:39:59;;;;;;;7.97;3.88;;;4.00;87.30;;;;;;6062530;23;20030;-74
2022/01/10 01:42:35;;;;;;;11.27;4.53;;;4.00;87.30;;;;;;6062136;23;20033;-73
2022/01/10 01:45:06;;;;;;;13.85;4.40;;;4.00;87.30;;;;;;6081767;23;20129;-72
2022/01/10 01:47:35;;;;;;;12.13;4.22;;;4.00;87.20;;;;;;6061366;23;20105;-71
2022/01/10 01:50:08;;;;;;;9.40;3.60;;;3.90;87.20;;;;;;6083364;23;20033;-72
2022/01/10 01:52:35;;;;;;;11.13;4.10;;;3.90;87.20;;;;;;6059775;23;20030;-71
2022/01/10 01:55:02;;;;;;;9.05;3.53;;;3.90;87.30;;;;;;6083949;23;20022;-72
2022/01/10 01:57:32;;;;;;;10.45;4.38;;;3.90;87.30;;;;;;6061366;23;20023;-71
2022/01/10 01:59:59;;;;;;;10.10;3.92;;;3.90;87.30;;;;;;6055996;23;20048;-73
2022/01/10 02:02:26;;;;;;;6.63;3.42;;;3.90;87.30;;;;;;6077657;23;20050;-70
2022/01/10 02:04:54;;;;;;;8.85;3.15;;;3.90;87.30;;;;;;6084520;23;20255;-72
2022/01/10 02:07:21;;;;;;;10.20;3.80;;;3.90;87.30;;;;;;6084366;23;20023;-70
2022/01/10 02:10:04;;;;;;;6.93;3.00;;;3.90;87.30;;;;;;3820750;23;10002944;-73
2022/01/10 02:12:32;;;;;;;8.95;3.58;;;3.90;87.30;;;;;;3550595;23;10002063;-71
2022/01/10 02:15:00;;;;;;;8.55;3.65;;;3.90;87.30;;;;;;6085363;23;20022;-72
2022/01/10 02:17:36;;;;;;;10.85;3.53;;;3.90;87.30;;;;;;6085000;23;20031;-71
2022/01/10 02:20:12;;;;;;;7.40;3.13;;;3.90;87.30;;;;;;6058504;23;20050;-71
2022/01/10 02:22:39;;;;;;;7.85;4.03;;;3.90;87.30;;;;;;6058777;23;20034;-71
2022/01/10 02:25:25;;;;;;;9.75;3.67;;;3.90;87.30;;;;;;6058093;23;20037;-72
2022/01/10 02:27:55;;;;;;;9.40;4.25;;;3.90;87.10;;;;;;6080477;23;20088;-71
2022/01/10 02:30:22;;;;;;;9.73;4.78;;;3.90;87.10;;;;;;6062247;23;20022;-72
2022/01/10 02:32:49;;;;;;;8.07;4.22;;;3.90;87.00;;;;;;6058643;23;20022;-71
2022/01/10 02:35:23;;;;;;;12.35;3.22;;;3.80;87.10;;;;;;6058721;23;20015;-72
2022/01/10 02:37:52;;;;;;;9.77;3.58;;;3.90;87.00;;;;;;6059592;23;20023;-72
2022/01/10 02:40:23;;;;;;;10.07;4.18;;;3.90;87.00;;;;;;6060820;23;20468;-72
2022/01/10 02:42:51;;;;;;;8.23;3.08;;;3.90;86.90;;;;;;6056933;23;20034;-71
2022/01/10 02:45:19;;;;;;;10.30;3.50;;;3.80;87.00;;;;;;6060807;23;20023;-71
2022/01/10 02:47:47;;;;;;;13.93;5.15;;;3.90;87.00;;;;;;6060869;23;20019;-71
2022/01/10 02:50:15;;;;;;;11.25;4.18;;;3.80;87.10;;;;;;6060105;23;20106;-71
2022/01/10 02:52:46;;;;;;;12.50;4.80;;;3.80;87.10;;;;;;6058630;23;20019;-71
2022/01/10 02:55:13;;;;;;;8.82;3.70;;;3.90;87.10;;;;;;6059854;23;20046;-71
2022/01/10 02:57:40;;;;;;;8.98;3.75;;;3.80;87.20;;;;;;6059871;23;20023;-72
2022/01/10 03:00:11;;;;;;;14.18;4.50;;;3.80;87.30;;;;;;6080960;23;20026;-72
2022/01/10 03:02:38;;;;;;;11.68;5.68;;;3.80;87.30;;;;;;6058772;23;20094;-72
2022/01/10 03:05:07;;;;;;;10.30;3.83;;;3.80;87.30;;;;;;6056043;23;20026;-72
2022/01/10 03:07:35;;;;;;;10.93;4.03;;;3.80;87.30;;;;;;6059184;23;20050;-72
2022/01/10 03:10:04;;;;;;;15.07;4.75;;;3.80;87.40;;;;;;6058084;23;20508;-72
2022/01/10 03:12:31;;;;;;;12.45;4.88;;;3.80;87.40;;;;;;6057779;23;20098;-72
2022/01/10 03:14:59;;;;;;;12.00;5.13;;;3.80;87.40;;;;;;6059101;23;20050;-72
2022/01/10 03:17:27;;;;;;;11.30;5.03;;;3.80;87.50;;;;;;6082705;23;20027;-72
2022/01/10 03:19:54;;;;;;;12.20;7.07;;;3.80;87.50;;;;;;6082618;23;20030;-72
2022/01/10 03:22:21;;;;;;;10.70;4.00;;;3.80;87.50;;;;;;6083571;23;20035;-72
2022/01/10 03:24:48;;;;;;;12.48;5.43;;;3.80;87.60;;;;;;6057703;23;20022;-72
2022/01/10 03:27:17;;;;;;;11.10;4.80;;;3.80;87.50;;;;;;6056365;23;20112;-71
2022/01/10 03:29:44;;;;;;;10.23;3.58;;;3.80;87.60;;;;;;6058160;23;20019;-72
2022/01/10 03:32:12;;;;;;;13.32;4.68;;;3.80;87.50;;;;;;6080799;23;20031;-71
2022/01/10 03:34:39;;;;;;;11.98;4.72;;;3.80;87.50;;;;;;6077928;23;20031;-72
2022/01/10 03:37:08;;;;;;;16.10;4.97;;;3.80;87.50;;;;;;6081118;23;20023;-73
2022/01/10 03:39:36;;;;;;;9.60;4.13;;;3.80;87.50;;;;;;6079229;23;20098;-72
2022/01/10 03:42:04;;;;;;;9.70;4.80;;;3.80;87.40;;;;;;6057069;23;20023;-73
2022/01/10 03:44:33;;;;;;;13.43;4.88;;;3.80;87.50;;;;;;6057328;23;20225;-73
2022/01/10 03:47:03;;;;;;;11.25;4.65;;;3.80;87.50;;;;;;6081354;23;20390;-70
2022/01/10 03:49:30;;;;;;;9.43;4.15;;;3.70;87.50;;;;;;6055107;23;20026;-71
2022/01/10 03:51:57;;;;;;;15.07;5.18;;;3.80;87.50;;;;;;6080956;23;20312;-71
2022/01/10 03:54:24;;;;;;;11.63;4.53;;;3.70;87.60;;;;;;6059975;23;20327;-71
2022/01/10 03:56:54;;;;;;;10.95;3.72;;;3.70;87.50;;;;;;6057313;23;20078;-71
2022/01/10 03:59:21;;;;;;;13.55;4.25;;;3.70;87.50;;;;;;6060326;23;20030;-73
2022/01/10 04:01:51;;;;;;;11.02;5.20;;;3.70;87.50;;;;;;6058929;23;20348;-72
2022/01/10 04:04:18;;;;;;;11.73;4.03;;;3.70;87.50;;;;;;6059256;23;20018;-72
2022/01/10 04:06:45;;;;;;;16.60;5.13;;;3.80;87.50;;;;;;6061501;23;20577;-71
2022/01/10 04:09:14;;;;;;;9.43;3.60;;;3.80;87.60;;;;;;5605251;23;10001540;-74
2022/01/10 04:11:42;;;;;;;7.68;3.30;;;3.80;87.50;;;;;;832720;23;10001966;-72
2022/01/10 04:14:09;;;;;;;7.45;3.50;;;3.80;87.50;;;;;;6084020;23;20457;-72
2022/01/10 04:16:36;;;;;;;9.57;4.53;;;3.80;87.50;;;;;;6083935;23;20181;-72
2022/01/10 04:19:04;;;;;;;12.73;4.78;;;3.80;87.50;;;;;;6084055;23;20058;-72
2022/01/10 04:21:31;;;;;;;9.43;4.18;;;3.70;87.50;;;;;;6059313;23;20023;-73
2022/01/10 04:23:59;;;;;;;11.45;4.80;;;3.80;87.50;;;;;;6083112;23;20121;-70
2022/01/10 04:26:26;;;;;;;11.35;4.68;;;3.70;87.60;;;;;;6084023;23;20426;-72
2022/01/10 04:28:52;;;;;;;9.23;3.80;;;3.70;87.60;;;;;;6083354;23;20059;-72
2022/01/10 04:31:20;;;;;;;9.27;3.78;;;3.70;87.50;;;;;;6085961;23;20532;-71
2022/01/10 04:33:47;;;;;;;10.30;3.40;;;3.70;87.50;;;;;;6060718;23;20119;-72
2022/01/10 04:36:15;;;;;;;11.25;3.97;;;3.70;87.50;;;;;;6084654;23;20342;-70
2022/01/10 04:38:43;;;;;;;9.85;3.70;;;3.60;87.50;;;;;;6083923;23;20398;-71
2022/01/10 04:41:12;;;;;;;13.77;5.80;;;3.60;87.50;;;;;;6084645;23;20071;-72
2022/01/10 04:43:39;;;;;;;13.93;6.50;;;3.60;87.50;;;;;;6059252;23;20473;-70
2022/01/10 04:46:07;;;;;;;16.52;7.93;;;3.60;87.50;;;;;;6064269;23;20034;-72
2022/01/10 04:48:34;;;;;;;15.90;7.30;;;3.60;87.50;;;;;;6065016;23;20027;-71
2022/01/10 04:51:15;;;;;;;15.00;6.38;;;3.60;87.40;;;;;;6084826;23;20458;-70
2022/01/10 04:53:45;;;;;;;12.40;5.15;;;3.60;87.50;;;;;;6059763;23;20428;-71
2022/01/10 04:56:13;;;;;;;11.48;4.78;;;3.60;87.50;;;;;;6056270;23;20032;-71
2022/01/10 04:58:42;;;;;;;9.35;4.80;;;3.60;87.50;;;;;;6059500;23;20025;-72
2022/01/10 05:01:09;;;;;;;10.60;4.05;;;3.50;87.60;;;;;;6056141;23;20018;-72
2022/01/10 05:03:37;;;;;;;8.82;3.40;;;3.50;87.70;;;;;;6084020;23;20023;-72
2022/01/10 05:06:05;;;;;;;7.78;3.63;;;3.50;87.80;;;;;;6057491;23;20366;-72
2022/01/10 05:08:33;;;;;;;7.22;4.00;;;3.50;87.90;;;;;;6059371;23;20172;-72
2022/01/10 05:11:03;;;;;;;14.13;6.53;;;3.50;87.90;;;;;;6080764;23;20022;-72
2022/01/10 05:13:32;;;;;;;20.90;8.45;;;3.50;87.90;;;;;;6079524;23;20018;-70
2022/01/10 05:15:59;;;;;;;18.92;7.65;;;3.50;88.00;;;;;;6059774;23;20023;-71
2022/01/10 05:18:26;;;;;;;21.75;9.35;;;3.50;88.00;;;;;;6059408;23;20019;-71
2022/01/10 05:20:53;;;;;;;13.15;7.32;;;3.50;88.00;;;;;;6081248;23;20470;-72
2022/01/10 05:23:20;;;;;;;12.43;6.65;;;3.50;88.00;;;;;;6080908;23;20022;-72
2022/01/10 05:25:47;;;;;;;12.68;5.53;;;3.50;88.00;;;;;;6058589;23;20027;-71
2022/01/10 05:28:19;;;;;;;14.52;4.80;;;3.60;88.00;;;;;;6081406;23;20023;-71
2022/01/10 05:30:47;;;;;;;11.80;4.47;;;3.60;87.90;;;;;;6082337;23;20025;-73
2022/01/10 05:33:17;;;;;;;9.13;4.10;;;3.60;87.80;;;;;;6081089;23;20054;-72
2022/01/10 05:35:48;;;;;;;8.55;3.67;;;3.60;87.70;;;;;;6057009;23;20457;-72
2022/01/10 05:38:15;;;;;;;7.57;3.22;;;3.60;87.70;;;;;;6058758;23;20453;-72
2022/01/10 05:40:42;;;;;;;9.27;4.03;;;3.60;87.60;;;;;;6079920;23;20057;-72
2022/01/10 05:43:10;;;;;;;8.13;2.97;;;3.60;87.70;;;;;;6081833;23;20219;-72
2022/01/10 05:45:45;;;;;;;5.45;2.22;;;3.50;87.80;;;;;;6060039;23;20023;-72
2022/01/10 05:48:20;;;;;;;5.05;2.35;;;3.50;87.70;;;;;;6061142;23;20015;-71
2022/01/10 05:50:47;;;;;;;8.48;3.25;;;3.50;87.80;;;;;;6082240;23;20059;-71
2022/01/10 05:53:14;;;;;;;6.97;2.80;;;3.50;87.60;;;;;;6061470;23;20475;-70
2022/01/10 05:55:42;;;;;;;7.28;3.40;;;3.50;87.60;;;;;;6059027;23;20019;-72
2022/01/10 05:58:12;;;;;;;;;;;3.50;87.80;;;;;;6060410;23;20015;-71
2022/01/10 06:00:41;;;;;;;11.05;3.40;;;3.50;87.80;;;;;;6080678;23;19917;-72
2022/01/10 06:03:10;;;;;;;10.73;3.45;;;3.50;87.80;;;;;;6060590;23;20035;-72
2022/01/10 06:05:42;;;;;;;8.75;3.42;;;3.40;87.70;;;;;;6058890;23;20106;-71
2022/01/10 06:08:09;;;;;;;8.27;3.85;;;3.40;87.70;;;;;;6083531;23;20484;-72
2022/01/10 06:10:59;;;;;;;3.40;1.57;;;3.40;87.70;;;;;;1523284;23;10022729;-72
2022/01/10 06:13:47;;;;;;;4.75;2.42;;;3.40;87.70;;;;;;5641045;23;10001486;-71
2022/01/10 06:16:15;;;;;;;6.68;3.55;;;3.40;87.50;;;;;;6083684;23;20027;-71
2022/01/10 06:18:45;;;;;;;5.78;2.78;;;3.40;87.50;;;;;;6059174;23;20057;-71
2022/01/10 06:21:12;;;;;;;6.82;3.05;;;3.30;87.50;;;;;;6061012;23;20098;-71
2022/01/10 06:23:39;;;;;;;5.93;2.45;;;3.40;87.40;;;;;;6082636;23;20023;-71
2022/01/10 06:26:06;;;;;;;5.40;2.63;;;3.40;87.30;;;;;;6083615;23;20638;-71
2022/01/10 06:28:34;;;;;;;5.35;2.13;;;3.40;87.20;;;;;;6082015;23;20461;-71
2022/01/10 06:31:03;;;;;;;5.45;2.20;;;3.40;87.10;;;;;;6060718;23;20023;-71
2022/01/10 06:33:37;;;;;;;4.70;1.60;;;3.40;87.00;;;;;;6083531;23;20025;-72
2022/01/10 06:36:08;;;;;;;6.47;2.15;;;3.40;87.00;;;;;;6059160;23;20018;-71
2022/01/10 06:38:37;;;;;;;5.40;2.35;;;3.30;86.90;;;;;;6057118;23;20026;-71
2022/01/10 06:41:04;;;;;;;6.78;1.75;;;3.40;86.90;;;;;;6083141;23;20094;-71
2022/01/10 06:43:31;;;;;;;7.32;2.88;;;3.30;86.80;;;;;;6058802;23;20169;-71
2022/01/10 06:45:59;;;;;;;5.30;1.88;;;3.40;86.90;;;;;;6057265;23;20022;-72
2022/01/10 06:48:26;;;;;;;4.35;1.67;;;3.30;86.90;;;;;;6079625;23;20461;-70
2022/01/10 06:50:54;;;;;;;4.10;1.83;;;3.40;87.00;;;;;;6057436;23;20035;-72
2022/01/10 06:53:23;;;;;;;6.32;2.50;;;3.40;87.00;;;;;;6056357;23;20398;-70
2022/01/10 06:55:51;;;;;;;6.68;3.17;;;3.40;87.00;;;;;;6055801;23;20027;-72
2022/01/10 06:58:18;;;;;;;4.80;2.30;;;3.40;87.10;;;;;;6058533;23;20104;-72
2022/01/10 07:00:46;;;;;;;6.22;2.75;;;3.40;87.10;;;;;;6077792;23;20037;-71
2022/01/10 07:03:13;;;;;;;5.88;2.58;;;3.40;87.10;;;;;;6059054;23;20018;-72
2022/01/10 07:05:48;;;;;;;7.88;2.83;;;3.40;87.30;;;;;;6053274;23;20027;-70
2022/01/10 07:08:17;;;;;;;8.70;2.85;;;3.40;87.30;;;;;;6080043;23;20023;-70
2022/01/10 07:10:56;;;;;;;8.35;3.38;;;3.40;87.30;;;;;;6080436;23;20117;-71
2022/01/10 07:13:25;;;;;;;7.10;1.90;;;3.40;87.30;;;;;;6080561;23;20030;-71
2022/01/10 07:15:53;;;;;;;5.22;2.65;;;3.40;87.30;;;;;;6055378;23;20034;-72
2022/01/10 07:18:21;;;;;;;6.32;2.35;;;3.40;87.40;;;;;;6081251;23;20033;-70
2022/01/10 07:20:51;;;;;;;6.78;3.03;;;3.40;87.40;;;;;;6079372;23;20027;-71
2022/01/10 07:23:20;;;;;;;6.57;2.40;;;3.40;87.40;;;;;;6056805;23;20055;-70
2022/01/10 07:25:46;;;;;;;6.50;2.63;;;3.40;87.40;;;;;;6056625;23;20046;-71
2022/01/10 07:28:15;;;;;;;7.68;2.40;;;3.30;87.40;;;;;;6060239;23;20357;-71
2022/01/10 07:30:42;;;;;;;9.45;2.63;;;3.30;87.50;;;;;;6059652;23;20025;-71
2022/01/10 07:33:09;;;;;;;5.30;2.47;;;3.40;87.50;;;;;;6061809;23;20047;-71
2022/01/10 07:35:36;;;;;;;6.65;2.13;;;3.40;87.50;;;;;;6061638;23;20022;-71
2022/01/10 07:38:03;;;;;;;6.65;3.25;;;3.40;87.50;;;;;;6060512;23;20026;-71
2022/01/10 07:40:30;;;;;;;5.28;2.47;;;3.40;87.40;;;;;;6059151;23;20047;-74
2022/01/10 07:42:57;;;;;;;7.53;2.90;;;3.40;87.50;;;;;;6062284;23;20029;-71
2022/01/10 07:45:51;;;;;;;11.65;2.42;;;3.40;87.40;;;;;;6059128;23;20035;-72
2022/01/10 07:48:18;;;;;;;8.10;2.45;;;3.50;87.40;;;;;;6062750;23;20022;-71
2022/01/10 07:50:45;;;;;;;7.22;2.58;;;3.50;87.40;;;;;;6062628;23;20050;-71
2022/01/10 07:53:12;;;;;;;8.75;3.30;;;3.40;87.40;;;;;;6062829;23;20031;-71
2022/01/10 07:55:39;;;;;;;6.65;2.83;;;3.40;87.50;;;;;;6061964;23;20101;-71
2022/01/10 07:58:06;;;;;;;7.93;3.78;;;3.50;87.50;;;;;;6061159;23;20464;-72
2022/01/10 08:00:33;;;;;;;6.93;3.47;;;3.50;87.50;;;;;;6059097;23;20023;-72
2022/01/10 08:03:02;;;;;;;6.50;3.08;;;3.50;87.50;;;;;;6061972;23;20033;-71
2022/01/10 08:05:35;;;;;;;7.30;3.20;;;3.50;87.50;;;;;;6060314;23;20023;-71
2022/01/10 08:08:02;;;;;;;6.55;2.97;;;3.50;87.50;;;;;;6061699;23;20023;-70
2022/01/10 08:10:51;;;;;;;9.84;3.99;;;3.50;87.60;;;;;;2327559;23;10150961;-72
2022/01/10 08:13:18;;;;;;;8.27;3.05;;;3.50;87.60;;;;;;4805436;23;10001054;-71
2022/01/10 08:15:45;;;;;;;6.05;2.92;;;3.50;87.60;;;;;;6060251;23;20034;-72
2022/01/10 08:18:14;;;;;;;5.70;2.83;;;3.50;87.60;;;;;;6058879;23;20357;-72
2022/01/10 08:20:42;;;;;;;6.32;3.42;;;3.50;87.50;;;;;;6058410;23;20023;-72
2022/01/10 08:23:09;;;;;;;6.00;2.28;;;3.50;87.40;;;;;;6058215;23;20033;-70
2022/01/10 08:25:35;;;;;;;4.53;2.20;;;3.60;87.50;;;;;;6058758;23;20031;-71
2022/01/10 08:28:04;;;;;;;7.30;2.88;;;3.50;87.40;;;;;;6056224;23;20159;-71
2022/01/10 08:30:32;;;;;;;6.32;3.40;;;3.50;87.40;;;;;;6058769;23;20027;-71
2022/01/10 08:32:59;;;;;;;7.75;3.25;;;3.50;87.30;;;;;;6062146;23;20033;-71
2022/01/10 08:35:27;;;;;;;5.95;2.30;;;3.60;87.30;;;;;;6058781;23;20404;-72
2022/01/10 08:37:54;;;;;;;5.15;2.55;;;3.60;87.40;;;;;;6058137;23;20090;-72
2022/01/10 08:40:21;;;;;;;7.70;4.10;;;3.60;87.20;;;;;;6058998;23;20023;-71
2022/01/10 08:42:48;;;;;;;8.57;3.42;;;3.60;87.20;;;;;;6058668;23;20027;-71
2022/01/10 08:45:15;;;;;;;9.25;3.78;;;3.70;87.30;;;;;;6060596;23;20023;-71
2022/01/10 08:47:42;;;;;;;9.15;4.35;;;3.60;87.10;;;;;;6057394;23;20339;-71
2022/01/10 08:50:11;;;;;;;8.75;3.97;;;3.60;87.20;;;;;;6063306;23;20513;-71
2022/01/10 08:52:41;;;;;;;8.38;3.75;;;3.70;87.20;;;;;;6060622;23;20072;-71
2022/01/10 08:55:09;;;;;;;7.22;3.95;;;3.60;87.20;;;;;;6060151;23;20449;-71
2022/01/10 08:57:36;;;;;;;12.32;4.85;;;3.70;87.30;;;;;;6056605;23;20031;-71
2022/01/10 09:00:05;;;;;;;13.98;4.22;;;3.60;87.40;;;;;;6057968;23;20027;-71
2022/01/10 09:02:32;;;;;;;12.68;5.85;;;3.60;87.40;;;;;;6059034;23;20026;-72
2022/01/10 09:04:59;;;;;;;10.07;5.90;;;3.70;87.50;;;;;;6062803;23;20097;-72
2022/01/10 09:07:26;;;;;;;13.05;6.90;;;3.70;87.50;;;;;;6065088;23;20027;-71
2022/01/10 09:09:54;;;;;;;11.80;5.32;;;3.60;87.40;;;;;;6063408;23;20126;-72
2022/01/10 09:12:21;;;;;;;8.60;4.32;;;3.70;87.50;;;;;;6063895;23;20023;-71
2022/01/10 09:14:48;;;;;;;8.68;3.55;;;3.70;87.50;;;;;;6063556;23;20022;-71
2022/01/10 09:17:15;;;;;;;8.25;3.58;;;3.70;87.50;;;;;;6062539;23;20330;-72
2022/01/10 09:19:42;;;;;;;10.43;4.75;;;3.70;87.50;;;;;;6063246;23;20029;-70
2022/01/10 09:22:09;;;;;;;9.23;4.15;;;3.70;87.50;;;;;;6085248;23;20094;-71
2022/01/10 09:24:36;;;;;;;9.43;3.92;;;3.70;87.50;;;;;;6060035;23;20048;-72
2022/01/10 09:27:05;;;;;;;9.68;4.15;;;3.70;87.40;;;;;;6061865;23;20102;-72
2022/01/10 09:29:32;;;;;;;6.78;3.80;;;3.70;87.40;;;;;;6060085;23;20122;-72
2022/01/10 09:31:59;;;;;;;8.80;3.83;;;3.80;87.40;;;;;;6060601;23;20134;-72
2022/01/10 09:34:26;;;;;;;8.63;3.95;;;3.80;87.40;;;;;;6060772;23;20122;-72
2022/01/10 09:36:53;;;;;;;9.15;3.63;;;3.80;87.40;;;;;;6059535;23;20031;-71
2022/01/10 09:39:20;;;;;;;8.45;3.53;;;3.80;87.40;;;;;;6059979;23;20023;-71
2022/01/10 09:41:48;;;;;;;10.70;3.97;;;3.80;87.40;;;;;;6060170;23;20109;-71
2022/01/10 09:44:17;;;;;;;7.35;3.88;;;3.80;87.30;;;;;;6063546;23;20032;-71
2022/01/10 09:46:47;;;;;;;7.22;3.33;;;3.80;87.30;;;;;;6063393;23;20023;-71
2022/01/10 09:49:15;;;;;;;9.98;3.97;;;3.90;87.30;;;;;;6064241;23;20027;-71
2022/01/10 09:51:42;;;;;;;8.60;3.55;;;3.90;87.30;;;;;;6063378;23;20025;-72
2022/01/10 09:54:09;;;;;;;13.27;5.50;;;3.90;87.40;;;;;;6063693;23;20038;-72
2022/01/10 09:56:36;;;;;;;9.82;4.78;;;3.90;87.50;;;;;;6062499;23;20022;-72
2022/01/10 09:59:03;;;;;;;10.00;5.53;;;4.00;87.60;;;;;;6063485;23;20027;-71
2022/01/10 10:01:33;;;;;;;11.57;5.75;;;4.00;87.60;;;;;;6060496;23;20027;-73
2022/01/10 10:04:02;;;;;;;8.27;4.03;;;4.00;87.50;;;;;;6061250;23;20102;-72
2022/01/10 10:06:31;;;;;;;8.70;4.87;;;4.10;87.50;;;;;;6061848;23;20348;-70
2022/01/10 10:08:59;;;;;;;7.43;3.90;;;4.10;87.50;;;;;;6009512;23;20033;-72
2022/01/10 10:11:47;;;;;;;6.94;3.24;;;4.10;87.40;;;;;;2318655;23;10149947;-71
2022/01/10 10:14:17;;;;;;;9.77;4.32;;;4.20;87.40;;;;;;4804856;23;10000991;-72
2022/01/10 10:16:49;;;;;;;9.20;4.28;;;4.20;87.30;;;;;;6060940;23;20019;-72
2022/01/10 10:19:17;;;;;;;9.30;4.68;;;4.20;87.20;;;;;;6062668;23;20019;-72
2022/01/10 10:21:45;;;;;;;6.88;4.32;;;4.20;87.20;;;;;;6060160;23;20304;-70
2022/01/10 10:24:13;;;;;;;11.98;5.22;;;4.20;87.20;;;;;;6057222;23;20027;-72
2022/01/10 10:26:41;;;;;;;8.27;4.30;;;4.30;87.30;;;;;;6056208;23;20026;-72
2022/01/10 10:29:09;;;;;;;10.40;5.20;;;4.30;87.40;;;;;;6057987;23;20030;-72
2022/01/10 10:31:43;;;;;;;11.80;4.53;;;4.30;87.40;;;;;;6058416;23;20370;-71
2022/01/10 10:34:12;;;;;;;11.02;4.85;;;4.30;87.40;;;;;;6060907;23;20026;-71
2022/01/10 10:36:40;;;;;;;8.60;3.53;;;4.30;87.20;;;;;;6061409;23;20043;-72
2022/01/10 10:39:10;;;;;;;10.77;4.53;;;4.30;87.20;;;;;;6082821;23;20439;-71
2022/01/10 10:41:38;;;;;;;10.15;4.88;;;4.30;87.30;;;;;;6060746;23;20030;-71
2022/01/10 10:44:06;;;;;;;14.50;5.75;;;4.40;87.40;;;;;;6062390;23;20023;-71
2022/01/10 10:46:36;;;;;;;8.48;4.38;;;4.40;87.30;;;;;;6059256;23;20027;-72
2022/01/10 10:49:04;;;;;;;11.67;6.87;;;4.40;87.30;;;;;;6058718;23;20019;-72
2022/01/10 10:51:37;;;;;;;9.25;4.82;;;4.40;87.30;;;;;;6059912;23;20051;-72
2022/01/10 10:54:07;;;;;;;9.07;4.40;;;4.40;87.30;;;;;;6060736;23;20457;-70
2022/01/10 10:56:35;;;;;;;11.67;5.27;;;4.40;87.20;;;;;;6061284;23;20054;-71
2022/01/10 10:59:02;;;;;;;9.73;4.35;;;4.50;87.20;;;;;;6063270;23;20019;-71
2022/01/10 11:01:36;;;;;;;9.38;3.78;;;4.50;87.10;;;;;;6081976;23;20327;-70
2022/01/10 11:04:04;;;;;;;8.65;4.45;;;4.50;87.00;;;;;;6063295;23;20047;-71
2022/01/10 11:06:33;;;;;;;9.25;5.10;;;4.50;87.10;;;;;;6064811;23;20021;-71
2022/01/10 11:09:05;;;;;;;8.60;3.97;;;4.60;87.10;;;;;;6064834;23;20350;-72
2022/01/10 11:11:33;;;;;;;9.70;4.30;;;4.60;87.00;;;;;;6065338;23;20023;-72
2022/01/10 11:14:02;;;;;;;12.27;4.68;;;4.60;86.90;;;;;;6065385;23;20105;-71
2022/01/10 11:16:32;;;;;;;10.40;4.75;;;4.60;86.90;;;;;;6060864;23;20019;-71
2022/01/10 11:18:59;;;;;;;10.95;5.07;;;4.70;86.70;;;;;;6061915;23;20050;-71
2022/01/10 11:21:26;;;;;;;8.43;4.05;;;4.70;86.70;;;;;;6063706;23;20513;-72
2022/01/10 11:23:55;;;;;;;8.48;3.25;;;4.70;86.60;;;;;;6061924;23;20357;-72
2022/01/10 11:26:22;;;;;;;10.02;3.42;;;4.70;86.80;;;;;;6062750;23;20106;-72
2022/01/10 11:28:52;;;;;;;8.85;4.22;;;4.70;86.80;;;;;;6063304;23;20071;-71
2022/01/10 11:31:22;;;;;;;11.48;3.88;;;4.70;86.80;;;;;;6065014;23;20030;-72
2022/01/10 11:33:49;;;;;;;7.38;3.38;;;4.80;86.80;;;;;;6062951;23;20046;-72
2022/01/10 11:36:18;;;;;;;9.85;3.80;;;4.80;86.90;;;;;;6061363;23;20025;-72
2022/01/10 11:38:49;;;;;;;7.15;3.30;;;4.80;86.70;;;;;;6061366;23;20449;-72
2022/01/10 11:41:18;;;;;;;10.95;4.57;;;4.80;86.80;;;;;;6064520;23;20023;-72
2022/01/10 11:43:51;;;;;;;9.63;4.00;;;4.90;86.70;;;;;;6062106;23;20442;-71
2022/01/10 11:46:24;;;;;;;9.60;3.92;;;4.90;86.80;;;;;;6062767;23;20031;-72
2022/01/10 11:48:58;;;;;;;8.55;3.97;;;4.90;86.70;;;;;;6063053;23;20026;-72
2022/01/10 11:51:28;;;;;;;7.82;3.90;;;4.90;86.80;;;;;;6061811;23;20018;-73
2022/01/10 11:54:09;;;;;;;11.10;3.13;;;4.90;86.80;;;;;;6058689;23;20213;-72
2022/01/10 11:56:39;;;;;;;9.98;3.95;;;5.00;86.80;;;;;;6059180;23;20027;-72
2022/01/10 11:59:16;;;;;;;9.10;3.58;;;5.00;86.60;;;;;;6058589;23;20019;-72
2022/01/10 12:01:44;;;;;;;9.27;4.28;;;5.10;86.40;;;;;;6058142;23;20039;-72
2022/01/10 12:04:12;;;;;;;6.80;4.25;;;5.10;86.50;;;;;;6062223;23;20023;-72
2022/01/10 12:06:39;;;;;;;13.35;5.60;;;5.10;86.50;;;;;;6058387;23;20035;-70
2022/01/10 12:09:17;;;;;;;8.68;3.61;;;5.10;86.50;;;;;;5906097;23;10000800;-71
2022/01/10 12:11:48;;;;;;;11.13;4.60;;;5.10;86.60;;;;;;832261;23;10002012;-72
2022/01/10 12:14:15;;;;;;;11.73;4.10;;;5.20;86.50;;;;;;6060437;23;20438;-71
2022/01/10 12:16:42;;;;;;;10.85;3.78;;;5.10;86.30;;;;;;6061279;23;20094;-72
2022/01/10 12:19:10;;;;;;;8.70;4.03;;;5.10;86.30;;;;;;6061589;23;20122;-71
2022/01/10 12:21:38;;;;;;;8.00;3.90;;;5.20;86.30;;;;;;6060474;23;20122;-71
2022/01/10 12:24:07;;;;;;;7.50;3.65;;;5.20;86.40;;;;;;6059428;23;20412;-71
2022/01/10 12:26:34;;;;;;;4.95;2.83;;;5.20;86.50;;;;;;6061199;23;20126;-71
2022/01/10 12:29:04;;;;;;;13.52;4.18;;;5.20;86.40;;;;;;6064617;23;20022;-71
2022/01/10 12:31:33;;;;;;;8.40;3.47;;;5.20;86.30;;;;;;6060972;23;20121;-71
2022/01/10 12:34:02;;;;;;;10.80;4.20;;;5.20;86.10;;;;;;6061623;23;20023;-71
2022/01/10 12:36:32;;;;;;;10.85;3.95;;;5.30;86.10;;;;;;6060203;23;20022;-73
2022/01/10 12:39:03;;;;;;;7.38;4.18;;;5.30;86.00;;;;;;6061806;23;20110;-72
2022/01/10 12:41:30;;;;;;;;;;;5.20;85.90;;;;;;6061924;23;20042;-72
2022/01/10 12:43:57;;;;;;;8.15;3.47;;;5.30;86.00;;;;;;6062700;23;19918;-72
2022/01/10 12:46:30;;;;;;;7.85;4.55;;;5.30;85.90;;;;;;6061370;23;20027;-71
2022/01/10 12:48:57;;;;;;;10.13;4.53;;;5.30;86.00;;;;;;6061165;23;20358;-71
2022/01/10 12:51:24;;;;;;;9.43;4.13;;;5.30;85.90;;;;;;6060219;23;20026;-73
2022/01/10 12:53:51;;;;;;;9.82;4.72;;;5.30;86.00;;;;;;6060909;23;20481;-71
2022/01/10 12:56:21;;;;;;;9.38;4.78;;;5.30;86.00;;;;;;6063234;23;20050;-71
2022/01/10 12:58:50;;;;;;;9.45;3.85;;;5.40;86.00;;;;;;6063912;23;20026;-71
2022/01/10 13:01:18;;;;;;;6.90;3.22;;;5.40;85.90;;;;;;6060699;23;20027;-71
2022/01/10 13:03:54;;;;;;;7.43;3.38;;;5.40;85.90;;;;;;6056542;23;20043;-70
2022/01/10 13:06:22;;;;;;;9.77;4.22;;;5.40;85.90;;;;;;6058648;23;20023;-72
2022/01/10 13:08:49;;;;;;;7.75;3.58;;;5.40;86.00;;;;;;6060683;23;20485;-72